sensor_id;sensor_type;location;lat;lon;timestamp;pressure;altitude;pressure_sealevel;temperature;humidity
49102;BME280;34913;47.520;19.186;2022-12-10T00:01:54;98310.84;;;5.54;100.00
49102;BME280;34913;47.520;19.186;2022-12-10T00:04:20;98307.91;;;5.57;100.00
49102;BME280;34913;47.520;19.186;2022-12-10T00:06:46;98313.31;;;5.56;100.00
49102;BME280;34913;47.520;19.186;2022-12-10T00:09:15;98308.75;;;5.58;100.00
49102;BME280;34913;47.520;19.186;2022-12-10T00:11:41;98315.13;;;5.55;100.00
49102;BME280;34913;47.520;19.186;2022-12-10T00:14:07;98308.31;;;5.53;100.00
49102;BME280;34913;47.520;19.186;2022-12-10T00:16:33;98315.94;;;5.46;100.00
49102;BME280;34913;47.520;19.186;2022-12-10T00:18:59;98311.91;;;5.42;100.00
49102;BME280;34913;47.520;19.186;2022-12-10T00:21:28;98316.63;;;5.39;100.00
49102;BME280;34913;47.520;19.186;2022-12-10T00:23:55;98327.16;;;5.48;100.00
49102;BME280;34913;47.520;19.186;2022-12-10T00:26:23;98327.16;;;5.48;100.00
49102;BME280;34913;47.520;19.186;2022-12-10T00:28:49;98337.81;;;5.47;100.00
49102;BME280;34913;47.520;19.186;2022-12-10T00:31:22;98340.72;;;5.44;100.00
49102;BME280;34913;47.520;19.186;2022-12-10T00:33:48;98318.50;;;5.27;100.00
49102;BME280;34913;47.520;19.186;2022-12-10T00:36:17;98338.50;;;5.49;100.00
49102;BME280;34913;47.520;19.186;2022-12-10T00:38:44;98350.41;;;5.53;100.00
49102;BME280;34913;47.520;19.186;2022-12-10T00:41:11;98341.16;;;5.49;100.00
49102;BME280;34913;47.520;19.186;2022-12-10T00:43:36;98347.53;;;5.46;100.00
49102;BME280;34913;47.520;19.186;2022-12-10T00:46:02;98358.28;;;5.43;100.00
49102;BME280;34913;47.520;19.186;2022-12-10T00:48:28;98345.41;;;5.40;100.00
49102;BME280;34913;47.520;19.186;2022-12-10T00:51:05;98344.59;;;5.40;100.00
49102;BME280;34913;47.520;19.186;2022-12-10T00:53:32;98352.06;;;5.44;100.00
49102;BME280;34913;47.520;19.186;2022-12-10T00:55:58;98353.19;;;5.42;100.00
49102;BME280;34913;47.520;19.186;2022-12-10T00:58:28;98351.38;;;5.42;100.00
49102;BME280;34913;47.520;19.186;2022-12-10T01:00:54;98356.50;;;5.44;100.00
49102;BME280;34913;47.520;19.186;2022-12-10T01:03:19;98364.44;;;5.53;100.00
49102;BME280;34913;47.520;19.186;2022-12-10T01:05:44;98370.09;;;5.49;100.00
49102;BME280;34913;47.520;19.186;2022-12-10T01:08:10;98370.91;;;5.49;100.00
49102;BME280;34913;47.520;19.186;2022-12-10T01:10:36;98368.97;;;5.42;100.00
49102;BME280;34913;47.520;19.186;2022-12-10T01:13:01;98367.16;;;5.42;100.00
49102;BME280;34913;47.520;19.186;2022-12-10T01:15:26;98375.50;;;5.47;100.00
49102;BME280;34913;47.520;19.186;2022-12-10T01:17:52;98384.88;;;5.40;100.00
49102;BME280;34913;47.520;19.186;2022-12-10T01:20:17;98386.16;;;5.46;100.00
49102;BME280;34913;47.520;19.186;2022-12-10T01:22:43;98379.22;;;5.45;100.00
49102;BME280;34913;47.520;19.186;2022-12-10T01:25:08;98385.34;;;5.55;100.00
49102;BME280;34913;47.520;19.186;2022-12-10T01:27:34;98375.06;;;5.52;100.00
49102;BME280;34913;47.520;19.186;2022-12-10T01:29:59;98380.50;;;5.60;100.00
49102;BME280;34913;47.520;19.186;2022-12-10T01:32:24;98379.81;;;5.58;100.00
49102;BME280;34913;47.520;19.186;2022-12-10T01:34:50;98372.19;;;5.55;100.00
49102;BME280;34913;47.520;19.186;2022-12-10T01:37:15;98376.75;;;5.53;100.00
49102;BME280;34913;47.520;19.186;2022-12-10T01:39:41;98379.09;;;5.46;100.00
49102;BME280;34913;47.520;19.186;2022-12-10T01:42:09;98394.59;;;5.49;100.00
49102;BME280;34913;47.520;19.186;2022-12-10T01:47:09;98361.75;;;5.44;100.00
49102;BME280;34913;47.520;19.186;2022-12-10T01:49:37;98376.47;;;5.46;100.00
49102;BME280;34913;47.520;19.186;2022-12-10T01:52:05;98373.28;;;5.52;100.00
49102;BME280;34913;47.520;19.186;2022-12-10T01:54:36;98367.75;;;5.55;100.00
49102;BME280;34913;47.520;19.186;2022-12-10T01:57:06;98370.69;;;5.62;100.00
49102;BME280;34913;47.520;19.186;2022-12-10T01:59:33;98359.59;;;5.58;100.00
49102;BME280;34913;47.520;19.186;2022-12-10T02:07:12;98398.84;;;5.81;100.00
49102;BME280;34913;47.520;19.186;2022-12-10T02:09:42;98405.34;;;5.77;100.00
49102;BME280;34913;47.520;19.186;2022-12-10T02:12:25;98405.75;;;5.72;100.00
49102;BME280;34913;47.520;19.186;2022-12-10T02:15:02;98405.44;;;5.66;100.00
49102;BME280;34913;47.520;19.186;2022-12-10T02:17:38;98404.75;;;5.64;100.00
49102;BME280;34913;47.520;19.186;2022-12-10T02:20:22;98408.66;;;5.69;100.00
49102;BME280;34913;47.520;19.186;2022-12-10T02:22:53;98408.78;;;5.68;100.00
49102;BME280;34913;47.520;19.186;2022-12-10T02:25:24;98413.63;;;5.63;100.00
49102;BME280;34913;47.520;19.186;2022-12-10T02:28:12;98410.84;;;5.54;100.00
49102;BME280;34913;47.520;19.186;2022-12-10T02:30:39;98398.22;;;5.48;100.00
49102;BME280;34913;47.520;19.186;2022-12-10T02:33:08;98401.97;;;5.55;100.00
49102;BME280;34913;47.520;19.186;2022-12-10T02:35:35;98395.28;;;5.51;100.00
49102;BME280;34913;47.520;19.186;2022-12-10T02:38:09;98407.22;;;5.55;100.00
49102;BME280;34913;47.520;19.186;2022-12-10T02:40:37;98403.50;;;5.58;100.00
49102;BME280;34913;47.520;19.186;2022-12-10T02:43:07;98401.56;;;5.60;100.00
49102;BME280;34913;47.520;19.186;2022-12-10T02:45:34;98403.25;;;5.61;100.00
49102;BME280;34913;47.520;19.186;2022-12-10T02:48:01;98403.78;;;5.55;100.00
49102;BME280;34913;47.520;19.186;2022-12-10T02:50:28;98394.06;;;5.55;100.00
49102;BME280;34913;47.520;19.186;2022-12-10T02:52:53;98407.13;;;5.67;100.00
49102;BME280;34913;47.520;19.186;2022-12-10T02:55:19;98392.72;;;5.71;100.00
49102;BME280;34913;47.520;19.186;2022-12-10T02:58:33;98393.72;;;5.70;100.00
49102;BME280;34913;47.520;19.186;2022-12-10T03:00:33;98394.84;;;5.77;100.00
49102;BME280;34913;47.520;19.186;2022-12-10T03:04:00;98401.63;;;5.89;100.00
49102;BME280;34913;47.520;19.186;2022-12-10T03:06:22;98408.03;;;5.96;100.00
49102;BME280;34913;47.520;19.186;2022-12-10T03:08:51;98385.13;;;5.87;100.00
49102;BME280;34913;47.520;19.186;2022-12-10T03:11:23;98401.41;;;6.02;100.00
49102;BME280;34913;47.520;19.186;2022-12-10T03:16:24;98416.94;;;6.05;100.00
49102;BME280;34913;47.520;19.186;2022-12-10T03:18:56;98424.16;;;6.12;100.00
49102;BME280;34913;47.520;19.186;2022-12-10T03:21:24;98417.66;;;6.17;100.00
49102;BME280;34913;47.520;19.186;2022-12-10T03:23:51;98421.13;;;6.17;100.00
49102;BME280;34913;47.520;19.186;2022-12-10T03:26:17;98419.31;;;6.18;100.00
49102;BME280;34913;47.520;19.186;2022-12-10T03:28:50;98420.00;;;6.20;100.00
49102;BME280;34913;47.520;19.186;2022-12-10T03:31:17;98420.00;;;6.20;100.00
49102;BME280;34913;47.520;19.186;2022-12-10T03:33:43;98431.78;;;6.25;100.00
49102;BME280;34913;47.520;19.186;2022-12-10T03:36:11;98441.63;;;6.23;100.00
49102;BME280;34913;47.520;19.186;2022-12-10T03:38:37;98434.81;;;6.01;100.00
49102;BME280;34913;47.520;19.186;2022-12-10T03:41:03;98432.88;;;6.03;100.00
49102;BME280;34913;47.520;19.186;2022-12-10T03:43:29;98441.06;;;6.10;100.00
49102;BME280;34913;47.520;19.186;2022-12-10T03:45:54;98437.41;;;5.92;100.00
49102;BME280;34913;47.520;19.186;2022-12-10T03:48:20;98444.09;;;5.96;100.00
49102;BME280;34913;47.520;19.186;2022-12-10T03:50:45;98450.63;;;6.01;100.00
49102;BME280;34913;47.520;19.186;2022-12-10T03:53:10;98446.72;;;5.96;100.00
49102;BME280;34913;47.520;19.186;2022-12-10T03:55:36;98450.00;;;5.88;100.00
49102;BME280;34913;47.520;19.186;2022-12-10T03:58:03;98454.00;;;5.82;100.00
49102;BME280;34913;47.520;19.186;2022-12-10T04:00:28;98455.50;;;5.75;100.00
49102;BME280;34913;47.520;19.186;2022-12-10T04:02:53;98444.00;;;5.76;100.00
49102;BME280;34913;47.520;19.186;2022-12-10T04:05:19;98452.84;;;5.75;100.00
49102;BME280;34913;47.520;19.186;2022-12-10T04:07:44;98439.28;;;5.70;100.00
49102;BME280;34913;47.520;19.186;2022-12-10T04:10:09;98434.03;;;5.70;100.00
49102;BME280;34913;47.520;19.186;2022-12-10T04:12:35;98451.03;;;5.66;100.00
49102;BME280;34913;47.520;19.186;2022-12-10T04:15:00;98458.69;;;5.69;100.00
49102;BME280;34913;47.520;19.186;2022-12-10T04:17:44;98453.69;;;5.76;100.00
49102;BME280;34913;47.520;19.186;2022-12-10T04:20:10;98449.66;;;5.72;100.00
49102;BME280;34913;47.520;19.186;2022-12-10T04:22:55;98452.16;;;5.64;100.00
49102;BME280;34913;47.520;19.186;2022-12-10T04:25:39;98449.16;;;5.47;100.00
49102;BME280;34913;47.520;19.186;2022-12-10T04:28:23;98445.47;;;5.59;100.00
49102;BME280;34913;47.520;19.186;2022-12-10T04:30:49;98454.31;;;5.58;100.00
49102;BME280;34913;47.520;19.186;2022-12-10T04:33:14;98459.22;;;5.63;100.00
49102;BME280;34913;47.520;19.186;2022-12-10T04:35:39;98461.97;;;5.62;100.00
49102;BME280;34913;47.520;19.186;2022-12-10T04:38:05;98458.91;;;5.56;100.00
49102;BME280;34913;47.520;19.186;2022-12-10T04:40:30;98464.03;;;5.58;100.00
49102;BME280;34913;47.520;19.186;2022-12-10T04:42:55;98449.03;;;5.49;100.00
49102;BME280;34913;47.520;19.186;2022-12-10T04:45:21;98454.75;;;5.54;100.00
49102;BME280;34913;47.520;19.186;2022-12-10T04:47:46;98445.72;;;5.47;100.00
49102;BME280;34913;47.520;19.186;2022-12-10T04:50:11;98441.53;;;5.44;100.00
49102;BME280;34913;47.520;19.186;2022-12-10T04:52:37;98451.97;;;5.55;100.00
49102;BME280;34913;47.520;19.186;2022-12-10T04:55:03;98453.50;;;5.58;100.00
49102;BME280;34913;47.520;19.186;2022-12-10T04:57:28;98453.03;;;5.43;100.00
49102;BME280;34913;47.520;19.186;2022-12-10T04:59:53;98460.66;;;5.46;100.00
49102;BME280;34913;47.520;19.186;2022-12-10T05:02:19;98462.34;;;5.47;100.00
49102;BME280;34913;47.520;19.186;2022-12-10T05:04:44;98457.03;;;5.38;100.00
49102;BME280;34913;47.520;19.186;2022-12-10T05:07:10;98462.47;;;5.46;100.00
49102;BME280;34913;47.520;19.186;2022-12-10T05:09:35;98469.31;;;5.37;100.00
49102;BME280;34913;47.520;19.186;2022-12-10T05:12:00;98466.84;;;5.36;100.00
49102;BME280;34913;47.520;19.186;2022-12-10T05:14:26;98470.06;;;5.39;100.00
49102;BME280;34913;47.520;19.186;2022-12-10T05:16:51;98468.13;;;5.41;100.00
49102;BME280;34913;47.520;19.186;2022-12-10T05:19:17;98476.75;;;5.53;100.00
49102;BME280;34913;47.520;19.186;2022-12-10T05:21:45;98486.00;;;5.47;100.00
49102;BME280;34913;47.520;19.186;2022-12-10T05:24:29;98487.94;;;5.45;100.00
49102;BME280;34913;47.520;19.186;2022-12-10T05:26:54;98502.50;;;5.49;100.00
49102;BME280;34913;47.520;19.186;2022-12-10T05:29:21;98495.22;;;5.32;100.00
49102;BME280;34913;47.520;19.186;2022-12-10T05:31:47;98498.56;;;5.44;100.00
49102;BME280;34913;47.520;19.186;2022-12-10T05:34:12;98499.50;;;5.33;100.00
49102;BME280;34913;47.520;19.186;2022-12-10T05:36:38;98500.34;;;5.33;100.00
49102;BME280;34913;47.520;19.186;2022-12-10T05:39:03;98495.41;;;5.19;100.00
49102;BME280;34913;47.520;19.186;2022-12-10T05:41:33;98499.88;;;5.28;100.00
49102;BME280;34913;47.520;19.186;2022-12-10T05:43:59;98499.50;;;5.12;100.00
49102;BME280;34913;47.520;19.186;2022-12-10T05:46:27;98501.19;;;5.13;100.00
49102;BME280;34913;47.520;19.186;2022-12-10T05:48:53;98498.53;;;5.13;100.00
49102;BME280;34913;47.520;19.186;2022-12-10T05:51:22;98498.34;;;5.26;100.00
49102;BME280;34913;47.520;19.186;2022-12-10T05:53:48;98504.81;;;5.43;100.00
49102;BME280;34913;47.520;19.186;2022-12-10T05:56:16;98512.31;;;5.47;100.00
49102;BME280;34913;47.520;19.186;2022-12-10T05:58:44;98506.38;;;5.45;100.00
49102;BME280;34913;47.520;19.186;2022-12-10T06:01:12;98505.78;;;5.42;100.00
49102;BME280;34913;47.520;19.186;2022-12-10T06:03:39;98494.25;;;5.33;100.00
49102;BME280;34913;47.520;19.186;2022-12-10T06:06:05;98496.59;;;5.36;100.00
49102;BME280;34913;47.520;19.186;2022-12-10T06:08:31;98494.94;;;5.35;100.00
49102;BME280;34913;47.520;19.186;2022-12-10T06:11:04;98499.56;;;5.43;100.00
49102;BME280;34913;47.520;19.186;2022-12-10T06:13:30;98517.63;;;5.57;100.00
49102;BME280;34913;47.520;19.186;2022-12-10T06:15:55;98520.59;;;5.43;100.00
49102;BME280;34913;47.520;19.186;2022-12-10T06:18:21;98520.19;;;5.38;100.00
49102;BME280;34913;47.520;19.186;2022-12-10T06:20:47;98513.88;;;5.29;100.00
49102;BME280;34913;47.520;19.186;2022-12-10T06:23:12;98512.09;;;5.29;100.00
49102;BME280;34913;47.520;19.186;2022-12-10T06:25:39;98499.84;;;5.19;100.00
49102;BME280;34913;47.520;19.186;2022-12-10T06:28:05;98524.19;;;5.42;100.00
49102;BME280;34913;47.520;19.186;2022-12-10T06:30:32;98518.38;;;5.38;100.00
49102;BME280;34913;47.520;19.186;2022-12-10T06:32:57;98519.44;;;5.36;100.00
49102;BME280;34913;47.520;19.186;2022-12-10T06:35:22;98521.69;;;5.40;100.00
49102;BME280;34913;47.520;19.186;2022-12-10T06:37:49;98510.22;;;5.41;100.00
49102;BME280;34913;47.520;19.186;2022-12-10T06:40:14;98525.44;;;5.38;100.00
49102;BME280;34913;47.520;19.186;2022-12-10T06:42:40;98539.16;;;5.41;100.00
49102;BME280;34913;47.520;19.186;2022-12-10T06:45:05;98535.38;;;5.34;100.00
49102;BME280;34913;47.520;19.186;2022-12-10T06:47:31;98538.63;;;5.47;100.00
49102;BME280;34913;47.520;19.186;2022-12-10T06:49:56;98539.34;;;5.28;100.00
49102;BME280;34913;47.520;19.186;2022-12-10T06:52:22;98529.34;;;5.22;100.00
49102;BME280;34913;47.520;19.186;2022-12-10T06:54:47;98536.84;;;5.27;100.00
49102;BME280;34913;47.520;19.186;2022-12-10T06:57:12;98549.16;;;5.26;100.00
49102;BME280;34913;47.520;19.186;2022-12-10T06:59:38;98544.69;;;5.38;100.00
49102;BME280;34913;47.520;19.186;2022-12-10T07:02:03;98551.28;;;5.32;100.00
49102;BME280;34913;47.520;19.186;2022-12-10T07:04:29;98541.72;;;5.31;100.00
49102;BME280;34913;47.520;19.186;2022-12-10T07:06:54;98527.44;;;5.24;100.00
49102;BME280;34913;47.520;19.186;2022-12-10T07:09:19;98536.94;;;5.16;100.00
49102;BME280;34913;47.520;19.186;2022-12-10T07:11:45;98533.59;;;5.14;100.00
49102;BME280;34913;47.520;19.186;2022-12-10T07:14:15;98530.84;;;5.15;100.00
49102;BME280;34913;47.520;19.186;2022-12-10T07:16:41;98540.63;;;5.13;100.00
49102;BME280;34913;47.520;19.186;2022-12-10T07:19:09;98546.16;;;5.10;100.00
49102;BME280;34913;47.520;19.186;2022-12-10T07:21:35;98544.75;;;5.06;100.00
49102;BME280;34913;47.520;19.186;2022-12-10T07:24:04;98549.00;;;4.86;100.00
49102;BME280;34913;47.520;19.186;2022-12-10T07:26:33;98553.78;;;4.92;100.00
49102;BME280;34913;47.520;19.186;2022-12-10T07:29:00;98543.19;;;5.03;100.00
49102;BME280;34913;47.520;19.186;2022-12-10T07:31:26;98541.78;;;4.99;100.00
49102;BME280;34913;47.520;19.186;2022-12-10T07:33:53;98530.44;;;4.99;100.00
49102;BME280;34913;47.520;19.186;2022-12-10T07:36:20;98514.72;;;4.88;100.00
49102;BME280;34913;47.520;19.186;2022-12-10T07:38:47;98516.13;;;4.92;100.00
49102;BME280;34913;47.520;19.186;2022-12-10T07:41:13;98511.44;;;4.95;100.00
49102;BME280;34913;47.520;19.186;2022-12-10T07:43:41;98512.47;;;5.04;100.00
49102;BME280;34913;47.520;19.186;2022-12-10T07:46:15;98522.94;;;5.15;100.00
49102;BME280;34913;47.520;19.186;2022-12-10T07:48:42;98521.56;;;5.21;100.00
49102;BME280;34913;47.520;19.186;2022-12-10T07:51:08;98513.38;;;5.14;100.00
49102;BME280;34913;47.520;19.186;2022-12-10T07:53:34;98519.47;;;5.15;100.00
49102;BME280;34913;47.520;19.186;2022-12-10T07:56:00;98529.03;;;5.16;100.00
49102;BME280;34913;47.520;19.186;2022-12-10T07:58:26;98533.88;;;5.20;100.00
49102;BME280;34913;47.520;19.186;2022-12-10T08:00:52;98540.53;;;5.15;100.00
49102;BME280;34913;47.520;19.186;2022-12-10T08:03:17;98546.28;;;5.09;100.00
49102;BME280;34913;47.520;19.186;2022-12-10T08:05:42;98556.41;;;5.13;100.00
49102;BME280;34913;47.520;19.186;2022-12-10T08:08:08;98549.75;;;5.09;100.00
49102;BME280;34913;47.520;19.186;2022-12-10T08:10:37;98536.97;;;5.04;100.00
49102;BME280;34913;47.520;19.186;2022-12-10T08:13:03;98539.09;;;5.11;100.00
49102;BME280;34913;47.520;19.186;2022-12-10T08:15:29;98544.34;;;5.11;100.00
49102;BME280;34913;47.520;19.186;2022-12-10T08:17:55;98539.78;;;5.13;100.00
49102;BME280;34913;47.520;19.186;2022-12-10T08:20:22;98526.31;;;5.27;100.00
49102;BME280;34913;47.520;19.186;2022-12-10T08:22:47;98534.72;;;5.21;100.00
49102;BME280;34913;47.520;19.186;2022-12-10T08:25:13;98538.84;;;5.35;100.00
49102;BME280;34913;47.520;19.186;2022-12-10T08:27:38;98527.47;;;5.34;100.00
49102;BME280;34913;47.520;19.186;2022-12-10T08:30:04;98514.72;;;5.29;100.00
49102;BME280;34913;47.520;19.186;2022-12-10T08:32:30;98522.22;;;5.34;100.00
49102;BME280;34913;47.520;19.186;2022-12-10T08:34:55;98523.22;;;5.43;100.00
49102;BME280;34913;47.520;19.186;2022-12-10T08:37:21;98496.38;;;5.39;100.00
49102;BME280;34913;47.520;19.186;2022-12-10T08:39:46;98514.44;;;5.53;100.00
49102;BME280;34913;47.520;19.186;2022-12-10T08:42:12;98508.75;;;5.58;100.00
49102;BME280;34913;47.520;19.186;2022-12-10T08:44:37;98520.75;;;5.72;100.00
49102;BME280;34913;47.520;19.186;2022-12-10T08:47:03;98517.63;;;5.57;100.00
49102;BME280;34913;47.520;19.186;2022-12-10T08:49:29;98516.00;;;5.66;100.00
49102;BME280;34913;47.520;19.186;2022-12-10T08:51:55;98511.44;;;5.68;100.00
49102;BME280;34913;47.520;19.186;2022-12-10T08:54:20;98543.84;;;5.68;99.85
49102;BME280;34913;47.520;19.186;2022-12-10T08:56:46;98538.25;;;5.82;98.64
49102;BME280;34913;47.520;19.186;2022-12-10T08:59:11;98546.00;;;5.84;98.36
49102;BME280;34913;47.520;19.186;2022-12-10T09:01:36;98547.09;;;5.81;99.37
49102;BME280;34913;47.520;19.186;2022-12-10T09:04:02;98549.47;;;5.84;97.40
49102;BME280;34913;47.520;19.186;2022-12-10T09:06:28;98555.16;;;5.80;98.86
49102;BME280;34913;47.520;19.186;2022-12-10T09:08:54;98557.25;;;5.86;98.26
49102;BME280;34913;47.520;19.186;2022-12-10T09:11:25;98555.16;;;5.80;99.16
49102;BME280;34913;47.520;19.186;2022-12-10T09:13:51;98554.00;;;5.73;98.84
49102;BME280;34913;47.520;19.186;2022-12-10T09:16:17;98561.75;;;5.74;98.92
49102;BME280;34913;47.520;19.186;2022-12-10T09:18:43;98560.47;;;5.69;98.33
49102;BME280;34913;47.520;19.186;2022-12-10T09:21:14;98561.34;;;5.69;99.15
49102;BME280;34913;47.520;19.186;2022-12-10T09:23:40;98567.63;;;5.57;100.00
49102;BME280;34913;47.520;19.186;2022-12-10T09:26:11;98551.22;;;5.44;99.42
49102;BME280;34913;47.520;19.186;2022-12-10T09:28:37;98548.53;;;5.55;98.81
49102;BME280;34913;47.520;19.186;2022-12-10T09:31:04;98538.63;;;5.47;99.65
49102;BME280;34913;47.520;19.186;2022-12-10T09:33:31;98527.69;;;5.52;99.65
49102;BME280;34913;47.520;19.186;2022-12-10T09:35:56;98528.25;;;5.46;100.00
49102;BME280;34913;47.520;19.186;2022-12-10T09:38:23;98544.09;;;5.35;100.00
49102;BME280;34913;47.520;19.186;2022-12-10T09:41:04;98548.72;;;5.42;100.00
49102;BME280;34913;47.520;19.186;2022-12-10T09:43:54;98544.56;;;5.40;100.00
49102;BME280;34913;47.520;19.186;2022-12-10T09:46:40;98539.16;;;5.41;100.00
49102;BME280;34913;47.520;19.186;2022-12-10T09:51:38;98524.28;;;5.30;100.00
49102;BME280;34913;47.520;19.186;2022-12-10T09:56:45;98522.34;;;5.53;100.00
49102;BME280;34913;47.520;19.186;2022-12-10T09:59:20;98522.72;;;5.49;100.00
49102;BME280;34913;47.520;19.186;2022-12-10T10:02:01;98512.84;;;5.41;100.00
49102;BME280;34913;47.520;19.186;2022-12-10T10:04:28;98512.97;;;5.40;100.00
49102;BME280;34913;47.520;19.186;2022-12-10T10:06:53;98500.38;;;5.43;100.00
49102;BME280;34913;47.520;19.186;2022-12-10T10:09:19;98499.16;;;5.47;100.00
49102;BME280;34913;47.520;19.186;2022-12-10T10:11:45;98494.31;;;5.52;100.00
49102;BME280;34913;47.520;19.186;2022-12-10T10:14:24;98483.03;;;5.31;100.00
49102;BME280;34913;47.520;19.186;2022-12-10T10:16:59;98491.16;;;5.28;100.00
49102;BME280;34913;47.520;19.186;2022-12-10T10:19:28;98491.28;;;5.26;100.00
49102;BME280;34913;47.520;19.186;2022-12-10T10:21:55;98489.50;;;5.27;100.00
49102;BME280;34913;47.520;19.186;2022-12-10T10:24:23;98480.72;;;5.17;100.00
49102;BME280;34913;47.520;19.186;2022-12-10T10:27:43;98494.06;;;5.25;100.00
49102;BME280;34913;47.520;19.186;2022-12-10T10:30:02;98493.00;;;5.37;100.00
49102;BME280;34913;47.520;19.186;2022-12-10T10:32:46;98493.59;;;5.41;100.00
49102;BME280;34913;47.520;19.186;2022-12-10T10:38:26;98490.38;;;5.37;100.00
49102;BME280;34913;47.520;19.186;2022-12-10T10:40:54;98483.03;;;5.31;100.00
49102;BME280;34913;47.520;19.186;2022-12-10T10:43:41;98490.66;;;5.34;100.00
49102;BME280;34913;47.520;19.186;2022-12-10T10:46:15;98486.81;;;5.38;100.00
49102;BME280;34913;47.520;19.186;2022-12-10T10:48:42;98496.03;;;5.53;100.00
49102;BME280;34913;47.520;19.186;2022-12-10T10:53:43;98493.28;;;5.65;100.00
49102;BME280;34913;47.520;19.186;2022-12-10T10:56:16;98500.91;;;5.68;100.00
49102;BME280;34913;47.520;19.186;2022-12-10T11:04:13;98495.47;;;5.59;100.00
49102;BME280;34913;47.520;19.186;2022-12-10T11:06:40;98486.31;;;5.54;100.00
49102;BME280;34913;47.520;19.186;2022-12-10T11:09:06;98486.19;;;5.55;100.00
49102;BME280;34913;47.520;19.186;2022-12-10T11:11:35;98489.72;;;5.45;100.00
49102;BME280;34913;47.520;19.186;2022-12-10T11:14:15;98475.03;;;5.42;100.00
49102;BME280;34913;47.520;19.186;2022-12-10T11:16:47;98467.41;;;5.39;100.00
49102;BME280;34913;47.520;19.186;2022-12-10T11:19:22;98458.81;;;5.37;100.00
49102;BME280;34913;47.520;19.186;2022-12-10T11:21:48;98468.38;;;5.38;100.00
49102;BME280;34913;47.520;19.186;2022-12-10T11:24:17;98466.34;;;5.51;100.00
49102;BME280;34913;47.520;19.186;2022-12-10T11:27:07;98466.50;;;5.59;100.00
49102;BME280;34913;47.520;19.186;2022-12-10T11:30:11;98464.47;;;5.63;100.00
49102;BME280;34913;47.520;19.186;2022-12-10T11:40:42;98450.31;;;5.54;98.94
49102;BME280;34913;47.520;19.186;2022-12-10T11:46:36;98438.19;;;5.42;100.00
49102;BME280;34913;47.520;19.186;2022-12-10T11:57:51;98411.66;;;5.45;100.00
49102;BME280;34913;47.520;19.186;2022-12-10T12:00:24;98402.72;;;5.37;100.00
49102;BME280;34913;47.520;19.186;2022-12-10T12:05:46;98395.59;;;5.18;100.00
49102;BME280;34913;47.520;19.186;2022-12-10T12:11:19;98392.31;;;5.25;100.00
49102;BME280;34913;47.520;19.186;2022-12-10T12:16:34;98387.03;;;5.25;100.00
49102;BME280;34913;47.520;19.186;2022-12-10T12:19:11;98381.69;;;5.37;100.00
49102;BME280;34913;47.520;19.186;2022-12-10T12:21:38;98382.22;;;5.30;100.00
49102;BME280;34913;47.520;19.186;2022-12-10T12:24:09;98384.88;;;5.30;100.00
49102;BME280;34913;47.520;19.186;2022-12-10T12:26:42;98384.06;;;5.40;100.00
49102;BME280;34913;47.520;19.186;2022-12-10T12:29:19;98371.72;;;5.30;100.00
49102;BME280;34913;47.520;19.186;2022-12-10T12:31:57;98363.38;;;5.25;100.00
49102;BME280;34913;47.520;19.186;2022-12-10T12:37:02;98381.78;;;5.25;100.00
49102;BME280;34913;47.520;19.186;2022-12-10T12:42:38;98378.72;;;5.20;100.00
49102;BME280;34913;47.520;19.186;2022-12-10T12:45:34;98376.34;;;5.17;100.00
49102;BME280;34913;47.520;19.186;2022-12-10T12:50:45;98374.22;;;5.01;100.00
49102;BME280;34913;47.520;19.186;2022-12-10T12:53:20;98371.31;;;5.04;100.00
49102;BME280;34913;47.520;19.186;2022-12-10T12:59:16;98384.22;;;5.08;100.00
49102;BME280;34913;47.520;19.186;2022-12-10T13:01:58;98386.53;;;5.01;100.00
49102;BME280;34913;47.520;19.186;2022-12-10T13:04:26;98390.25;;;4.98;100.00
49102;BME280;34913;47.520;19.186;2022-12-10T13:09:50;98395.81;;;5.05;100.00
49102;BME280;34913;47.520;19.186;2022-12-10T13:12:31;98394.69;;;4.98;100.00
49102;BME280;34913;47.520;19.186;2022-12-10T13:17:36;98404.66;;;5.04;100.00
49102;BME280;34913;47.520;19.186;2022-12-10T13:20:40;98400.88;;;4.97;100.00
49102;BME280;34913;47.520;19.186;2022-12-10T13:28:50;98400.78;;;4.78;100.00
49102;BME280;34913;47.520;19.186;2022-12-10T13:31:17;98399.00;;;4.78;100.00
49102;BME280;34913;47.520;19.186;2022-12-10T13:33:53;98396.88;;;4.72;100.00
49102;BME280;34913;47.520;19.186;2022-12-10T13:41:33;98398.88;;;4.59;100.00
49102;BME280;34913;47.520;19.186;2022-12-10T13:44:46;98399.25;;;4.54;100.00
49102;BME280;34913;47.520;19.186;2022-12-10T13:49:49;98394.84;;;4.55;100.00
49102;BME280;34913;47.520;19.186;2022-12-10T13:52:23;98387.91;;;4.54;100.00
49102;BME280;34913;47.520;19.186;2022-12-10T13:55:11;98388.19;;;4.51;100.00
49102;BME280;34913;47.520;19.186;2022-12-10T13:58:04;98388.38;;;4.59;100.00
49102;BME280;34913;47.520;19.186;2022-12-10T14:06:13;98381.75;;;4.64;100.00
49102;BME280;34913;47.520;19.186;2022-12-10T14:08:40;98376.91;;;4.60;100.00
49102;BME280;34913;47.520;19.186;2022-12-10T14:11:20;98369.53;;;4.54;100.00
49102;BME280;34913;47.520;19.186;2022-12-10T14:13:51;98366.38;;;4.60;100.00
49102;BME280;34913;47.520;19.186;2022-12-10T14:16:21;98368.59;;;4.64;100.00
49102;BME280;34913;47.520;19.186;2022-12-10T14:18:57;98370.88;;;4.69;100.00
49102;BME280;34913;47.520;19.186;2022-12-10T14:21:23;98363.50;;;4.63;100.00
49102;BME280;34913;47.520;19.186;2022-12-10T14:23:50;98364.81;;;4.57;100.00
49102;BME280;34913;47.520;19.186;2022-12-10T14:28:53;98371.03;;;4.56;100.00
49102;BME280;34913;47.520;19.186;2022-12-10T14:31:32;98370.72;;;4.70;100.00
49102;BME280;34913;47.520;19.186;2022-12-10T14:34:18;98370.03;;;4.68;100.00
49102;BME280;34913;47.520;19.186;2022-12-10T14:36:48;98375.53;;;4.65;100.00